sensor_id;sensor_type;location;lat;lon;timestamp;P1;durP1;ratioP1;P2;durP2;ratioP2
12625;SDS011;6378;42.684;23.372;2023-04-25T00:00:16;7.30;;;5.17;;
12625;SDS011;6378;42.684;23.372;2023-04-25T00:02:42;5.63;;;5.07;;
12625;SDS011;6378;42.684;23.372;2023-04-25T00:05:07;7.17;;;4.97;;
12625;SDS011;6378;42.684;23.372;2023-04-25T00:07:34;6.60;;;5.43;;
12625;SDS011;6378;42.684;23.372;2023-04-25T00:10:00;7.38;;;5.88;;
12625;SDS011;6378;42.684;23.372;2023-04-25T00:12:25;6.53;;;5.77;;
12625;SDS011;6378;42.684;23.372;2023-04-25T00:14:53;7.67;;;6.27;;
12625;SDS011;6378;42.684;23.372;2023-04-25T00:17:21;8.70;;;6.77;;
12625;SDS011;6378;42.684;23.372;2023-04-25T00:19:49;9.10;;;6.03;;
12625;SDS011;6378;42.684;23.372;2023-04-25T00:22:15;6.80;;;5.67;;
12625;SDS011;6378;42.684;23.372;2023-04-25T00:24:41;6.90;;;5.60;;
12625;SDS011;6378;42.684;23.372;2023-04-25T00:27:06;7.20;;;5.73;;
12625;SDS011;6378;42.684;23.372;2023-04-25T00:29:32;6.83;;;5.30;;
12625;SDS011;6378;42.684;23.372;2023-04-25T00:31:58;6.10;;;5.27;;
12625;SDS011;6378;42.684;23.372;2023-04-25T00:34:23;6.40;;;5.20;;
12625;SDS011;6378;42.684;23.372;2023-04-25T00:36:49;6.37;;;5.70;;
12625;SDS011;6378;42.684;23.372;2023-04-25T00:39:14;7.90;;;5.87;;
12625;SDS011;6378;42.684;23.372;2023-04-25T00:41:40;7.40;;;6.13;;
12625;SDS011;6378;42.684;23.372;2023-04-25T00:44:08;7.07;;;5.60;;
12625;SDS011;6378;42.684;23.372;2023-04-25T00:46:36;7.50;;;5.60;;
12625;SDS011;6378;42.684;23.372;2023-04-25T00:49:02;5.57;;;4.73;;
12625;SDS011;6378;42.684;23.372;2023-04-25T00:51:27;5.77;;;4.70;;
12625;SDS011;6378;42.684;23.372;2023-04-25T00:53:53;6.63;;;5.10;;
12625;SDS011;6378;42.684;23.372;2023-04-25T00:56:19;5.17;;;4.50;;
12625;SDS011;6378;42.684;23.372;2023-04-25T00:58:45;6.00;;;4.70;;
12625;SDS011;6378;42.684;23.372;2023-04-25T01:01:11;5.87;;;4.77;;
12625;SDS011;6378;42.684;23.372;2023-04-25T01:03:38;6.17;;;5.00;;
12625;SDS011;6378;42.684;23.372;2023-04-25T01:06:10;6.13;;;4.60;;
12625;SDS011;6378;42.684;23.372;2023-04-25T01:08:37;4.77;;;4.17;;
12625;SDS011;6378;42.684;23.372;2023-04-25T01:11:03;5.30;;;4.80;;
12625;SDS011;6378;42.684;23.372;2023-04-25T01:13:29;5.80;;;4.77;;
12625;SDS011;6378;42.684;23.372;2023-04-25T01:15:56;5.73;;;4.67;;
12625;SDS011;6378;42.684;23.372;2023-04-25T01:18:23;5.20;;;4.40;;
12625;SDS011;6378;42.684;23.372;2023-04-25T01:20:50;5.53;;;4.90;;
12625;SDS011;6378;42.684;23.372;2023-04-25T01:23:17;6.23;;;5.00;;
12625;SDS011;6378;42.684;23.372;2023-04-25T01:25:44;6.70;;;5.10;;
12625;SDS011;6378;42.684;23.372;2023-04-25T01:28:10;6.47;;;5.40;;
12625;SDS011;6378;42.684;23.372;2023-04-25T01:30:36;7.50;;;5.97;;
12625;SDS011;6378;42.684;23.372;2023-04-25T01:33:03;6.87;;;5.90;;
12625;SDS011;6378;42.684;23.372;2023-04-25T01:35:29;8.70;;;6.07;;
12625;SDS011;6378;42.684;23.372;2023-04-25T01:37:55;7.07;;;5.87;;
12625;SDS011;6378;42.684;23.372;2023-04-25T01:40:20;7.20;;;5.83;;
12625;SDS011;6378;42.684;23.372;2023-04-25T01:42:47;7.90;;;5.80;;
12625;SDS011;6378;42.684;23.372;2023-04-25T01:45:13;6.67;;;5.87;;
12625;SDS011;6378;42.684;23.372;2023-04-25T01:47:39;6.40;;;5.77;;
12625;SDS011;6378;42.684;23.372;2023-04-25T01:50:05;6.30;;;5.60;;
12625;SDS011;6378;42.684;23.372;2023-04-25T01:52:32;8.60;;;6.30;;
12625;SDS011;6378;42.684;23.372;2023-04-25T01:54:57;7.73;;;6.40;;
12625;SDS011;6378;42.684;23.372;2023-04-25T01:57:27;11.30;;;6.10;;
12625;SDS011;6378;42.684;23.372;2023-04-25T02:00:05;7.70;;;5.43;;
12625;SDS011;6378;42.684;23.372;2023-04-25T02:02:32;7.70;;;5.40;;
12625;SDS011;6378;42.684;23.372;2023-04-25T02:04:57;7.63;;;6.03;;
12625;SDS011;6378;42.684;23.372;2023-04-25T02:07:22;7.50;;;5.50;;
12625;SDS011;6378;42.684;23.372;2023-04-25T02:09:48;7.73;;;5.97;;
12625;SDS011;6378;42.684;23.372;2023-04-25T02:12:13;6.73;;;5.10;;
12625;SDS011;6378;42.684;23.372;2023-04-25T02:14:39;6.17;;;5.10;;
12625;SDS011;6378;42.684;23.372;2023-04-25T02:17:04;8.33;;;5.47;;
12625;SDS011;6378;42.684;23.372;2023-04-25T02:19:30;7.00;;;5.30;;
12625;SDS011;6378;42.684;23.372;2023-04-25T02:21:56;7.00;;;5.50;;
12625;SDS011;6378;42.684;23.372;2023-04-25T02:24:22;7.57;;;5.77;;
12625;SDS011;6378;42.684;23.372;2023-04-25T02:26:47;6.00;;;5.40;;
12625;SDS011;6378;42.684;23.372;2023-04-25T02:29:14;7.60;;;5.63;;
12625;SDS011;6378;42.684;23.372;2023-04-25T02:31:40;6.43;;;5.53;;
12625;SDS011;6378;42.684;23.372;2023-04-25T02:34:05;6.70;;;5.93;;
12625;SDS011;6378;42.684;23.372;2023-04-25T02:36:31;9.13;;;5.83;;
12625;SDS011;6378;42.684;23.372;2023-04-25T02:38:59;7.13;;;5.30;;
12625;SDS011;6378;42.684;23.372;2023-04-25T02:41:25;6.87;;;5.70;;
12625;SDS011;6378;42.684;23.372;2023-04-25T02:43:51;9.20;;;5.90;;
12625;SDS011;6378;42.684;23.372;2023-04-25T02:46:16;5.90;;;5.27;;
12625;SDS011;6378;42.684;23.372;2023-04-25T02:48:42;7.13;;;5.50;;
12625;SDS011;6378;42.684;23.372;2023-04-25T02:51:07;7.47;;;6.10;;
12625;SDS011;6378;42.684;23.372;2023-04-25T02:53:32;7.40;;;6.07;;
12625;SDS011;6378;42.684;23.372;2023-04-25T02:55:58;8.73;;;6.27;;
12625;SDS011;6378;42.684;23.372;2023-04-25T02:58:24;8.67;;;5.97;;
12625;SDS011;6378;42.684;23.372;2023-04-25T03:00:49;8.70;;;6.60;;
12625;SDS011;6378;42.684;23.372;2023-04-25T03:03:15;7.53;;;6.57;;
12625;SDS011;6378;42.684;23.372;2023-04-25T03:05:43;8.33;;;6.37;;
12625;SDS011;6378;42.684;23.372;2023-04-25T03:08:08;9.67;;;6.50;;
12625;SDS011;6378;42.684;23.372;2023-04-25T03:10:34;11.67;;;8.43;;
12625;SDS011;6378;42.684;23.372;2023-04-25T03:13:00;7.43;;;6.43;;
12625;SDS011;6378;42.684;23.372;2023-04-25T03:15:25;9.60;;;7.23;;
12625;SDS011;6378;42.684;23.372;2023-04-25T03:17:50;11.93;;;8.83;;
12625;SDS011;6378;42.684;23.372;2023-04-25T03:20:16;7.50;;;6.37;;
12625;SDS011;6378;42.684;23.372;2023-04-25T03:22:41;15.20;;;9.10;;
12625;SDS011;6378;42.684;23.372;2023-04-25T03:25:07;13.00;;;9.73;;
12625;SDS011;6378;42.684;23.372;2023-04-25T03:27:33;18.00;;;13.93;;
12625;SDS011;6378;42.684;23.372;2023-04-25T03:29:58;11.33;;;7.73;;
12625;SDS011;6378;42.684;23.372;2023-04-25T03:32:24;10.07;;;7.67;;
12625;SDS011;6378;42.684;23.372;2023-04-25T03:34:49;9.87;;;7.30;;
12625;SDS011;6378;42.684;23.372;2023-04-25T03:37:15;8.87;;;7.87;;
12625;SDS011;6378;42.684;23.372;2023-04-25T03:39:41;10.17;;;7.97;;
12625;SDS011;6378;42.684;23.372;2023-04-25T03:42:06;11.47;;;8.23;;
12625;SDS011;6378;42.684;23.372;2023-04-25T03:44:32;12.67;;;10.23;;
12625;SDS011;6378;42.684;23.372;2023-04-25T03:46:57;10.77;;;9.27;;
12625;SDS011;6378;42.684;23.372;2023-04-25T03:49:22;12.37;;;9.17;;
12625;SDS011;6378;42.684;23.372;2023-04-25T03:51:48;11.10;;;9.13;;
12625;SDS011;6378;42.684;23.372;2023-04-25T03:54:13;14.40;;;10.73;;
12625;SDS011;6378;42.684;23.372;2023-04-25T03:56:39;15.20;;;11.20;;
12625;SDS011;6378;42.684;23.372;2023-04-25T03:59:04;12.25;;;9.15;;
12625;SDS011;6378;42.684;23.372;2023-04-25T04:01:29;10.05;;;7.90;;
12625;SDS011;6378;42.684;23.372;2023-04-25T04:03:55;9.32;;;7.50;;
12625;SDS011;6378;42.684;23.372;2023-04-25T04:06:20;7.22;;;6.53;;
12625;SDS011;6378;42.684;23.372;2023-04-25T04:08:46;8.55;;;7.60;;
12625;SDS011;6378;42.684;23.372;2023-04-25T04:11:12;9.07;;;7.65;;
12625;SDS011;6378;42.684;23.372;2023-04-25T04:13:37;8.57;;;7.68;;
12625;SDS011;6378;42.684;23.372;2023-04-25T04:16:03;12.25;;;10.00;;
12625;SDS011;6378;42.684;23.372;2023-04-25T04:18:29;7.93;;;6.32;;
12625;SDS011;6378;42.684;23.372;2023-04-25T04:20:55;9.52;;;7.85;;
12625;SDS011;6378;42.684;23.372;2023-04-25T04:23:23;9.40;;;8.43;;
12625;SDS011;6378;42.684;23.372;2023-04-25T04:25:48;11.05;;;9.93;;
12625;SDS011;6378;42.684;23.372;2023-04-25T04:28:14;20.80;;;11.13;;
12625;SDS011;6378;42.684;23.372;2023-04-25T04:30:41;14.18;;;11.40;;
12625;SDS011;6378;42.684;23.372;2023-04-25T04:33:07;13.75;;;10.65;;
12625;SDS011;6378;42.684;23.372;2023-04-25T04:35:33;11.23;;;10.07;;
12625;SDS011;6378;42.684;23.372;2023-04-25T04:37:59;11.18;;;9.93;;
12625;SDS011;6378;42.684;23.372;2023-04-25T04:40:24;11.02;;;9.73;;
12625;SDS011;6378;42.684;23.372;2023-04-25T04:42:50;11.88;;;10.63;;
12625;SDS011;6378;42.684;23.372;2023-04-25T04:45:16;14.73;;;11.30;;
12625;SDS011;6378;42.684;23.372;2023-04-25T04:47:41;13.30;;;10.93;;
12625;SDS011;6378;42.684;23.372;2023-04-25T04:50:08;12.23;;;10.10;;
12625;SDS011;6378;42.684;23.372;2023-04-25T04:52:35;11.10;;;9.82;;
12625;SDS011;6378;42.684;23.372;2023-04-25T04:55:01;11.95;;;10.68;;
12625;SDS011;6378;42.684;23.372;2023-04-25T04:57:27;14.63;;;11.13;;
12625;SDS011;6378;42.684;23.372;2023-04-25T04:59:53;13.82;;;11.05;;
12625;SDS011;6378;42.684;23.372;2023-04-25T05:02:18;14.27;;;10.80;;
12625;SDS011;6378;42.684;23.372;2023-04-25T05:04:44;14.50;;;11.63;;
12625;SDS011;6378;42.684;23.372;2023-04-25T05:07:10;14.93;;;11.43;;
12625;SDS011;6378;42.684;23.372;2023-04-25T05:09:35;15.52;;;11.65;;
12625;SDS011;6378;42.684;23.372;2023-04-25T05:12:00;16.37;;;11.97;;
12625;SDS011;6378;42.684;23.372;2023-04-25T05:14:26;15.73;;;12.43;;
12625;SDS011;6378;42.684;23.372;2023-04-25T05:16:51;18.63;;;13.20;;
12625;SDS011;6378;42.684;23.372;2023-04-25T05:19:17;22.60;;;16.40;;
12625;SDS011;6378;42.684;23.372;2023-04-25T05:21:42;16.53;;;13.13;;
12625;SDS011;6378;42.684;23.372;2023-04-25T05:24:08;14.98;;;12.35;;
12625;SDS011;6378;42.684;23.372;2023-04-25T05:26:33;19.67;;;12.80;;
12625;SDS011;6378;42.684;23.372;2023-04-25T05:28:59;14.85;;;11.10;;
12625;SDS011;6378;42.684;23.372;2023-04-25T05:31:25;15.70;;;11.00;;
12625;SDS011;6378;42.684;23.372;2023-04-25T05:33:51;13.98;;;11.20;;
12625;SDS011;6378;42.684;23.372;2023-04-25T05:36:18;14.60;;;11.40;;
12625;SDS011;6378;42.684;23.372;2023-04-25T05:38:44;13.10;;;10.67;;
12625;SDS011;6378;42.684;23.372;2023-04-25T05:41:10;14.90;;;11.32;;
12625;SDS011;6378;42.684;23.372;2023-04-25T05:43:35;14.70;;;11.17;;
12625;SDS011;6378;42.684;23.372;2023-04-25T05:46:00;10.10;;;8.73;;
12625;SDS011;6378;42.684;23.372;2023-04-25T05:48:26;9.20;;;7.20;;
12625;SDS011;6378;42.684;23.372;2023-04-25T05:50:51;10.27;;;8.20;;
12625;SDS011;6378;42.684;23.372;2023-04-25T05:53:17;11.32;;;8.10;;
12625;SDS011;6378;42.684;23.372;2023-04-25T05:55:43;9.73;;;8.43;;
12625;SDS011;6378;42.684;23.372;2023-04-25T05:58:09;9.80;;;7.45;;
12625;SDS011;6378;42.684;23.372;2023-04-25T06:00:34;8.98;;;7.93;;
12625;SDS011;6378;42.684;23.372;2023-04-25T06:03:00;14.10;;;10.68;;
12625;SDS011;6378;42.684;23.372;2023-04-25T06:05:26;15.43;;;10.98;;
12625;SDS011;6378;42.684;23.372;2023-04-25T06:07:51;15.25;;;8.95;;
12625;SDS011;6378;42.684;23.372;2023-04-25T06:10:17;11.40;;;9.43;;
12625;SDS011;6378;42.684;23.372;2023-04-25T06:12:43;12.75;;;9.88;;
12625;SDS011;6378;42.684;23.372;2023-04-25T06:15:09;12.50;;;8.77;;
12625;SDS011;6378;42.684;23.372;2023-04-25T06:17:35;6.95;;;6.25;;
12625;SDS011;6378;42.684;23.372;2023-04-25T06:20:00;7.32;;;6.47;;
12625;SDS011;6378;42.684;23.372;2023-04-25T06:22:27;7.85;;;6.68;;
12625;SDS011;6378;42.684;23.372;2023-04-25T06:25:11;7.82;;;6.35;;
12625;SDS011;6378;42.684;23.372;2023-04-25T06:27:36;9.32;;;7.22;;
12625;SDS011;6378;42.684;23.372;2023-04-25T06:30:01;6.78;;;5.93;;
12625;SDS011;6378;42.684;23.372;2023-04-25T06:32:27;8.63;;;6.80;;
12625;SDS011;6378;42.684;23.372;2023-04-25T06:34:54;9.65;;;6.57;;
12625;SDS011;6378;42.684;23.372;2023-04-25T06:37:20;7.63;;;6.63;;
12625;SDS011;6378;42.684;23.372;2023-04-25T06:39:45;6.30;;;5.38;;
12625;SDS011;6378;42.684;23.372;2023-04-25T06:42:10;6.60;;;5.80;;
12625;SDS011;6378;42.684;23.372;2023-04-25T06:44:37;6.47;;;5.55;;
12625;SDS011;6378;42.684;23.372;2023-04-25T06:47:02;6.20;;;4.85;;
12625;SDS011;6378;42.684;23.372;2023-04-25T06:49:28;7.15;;;5.47;;
12625;SDS011;6378;42.684;23.372;2023-04-25T06:51:53;8.00;;;5.60;;
12625;SDS011;6378;42.684;23.372;2023-04-25T07:07:33;11.93;;;9.38;;
12625;SDS011;6378;42.684;23.372;2023-04-25T07:09:59;12.88;;;7.40;;
12625;SDS011;6378;42.684;23.372;2023-04-25T07:12:24;6.82;;;6.13;;
12625;SDS011;6378;42.684;23.372;2023-04-25T07:14:49;8.38;;;6.75;;
12625;SDS011;6378;42.684;23.372;2023-04-25T07:17:15;8.02;;;6.30;;
12625;SDS011;6378;42.684;23.372;2023-04-25T07:19:40;9.23;;;7.38;;
12625;SDS011;6378;42.684;23.372;2023-04-25T07:22:06;11.20;;;7.20;;
12625;SDS011;6378;42.684;23.372;2023-04-25T07:24:31;9.25;;;7.50;;
12625;SDS011;6378;42.684;23.372;2023-04-25T07:26:57;23.15;;;9.93;;
12625;SDS011;6378;42.684;23.372;2023-04-25T07:29:23;22.17;;;16.10;;
12625;SDS011;6378;42.684;23.372;2023-04-25T07:31:48;10.38;;;8.02;;
12625;SDS011;6378;42.684;23.372;2023-04-25T07:34:14;7.85;;;7.03;;
12625;SDS011;6378;42.684;23.372;2023-04-25T07:36:40;19.38;;;9.40;;
12625;SDS011;6378;42.684;23.372;2023-04-25T07:39:06;11.40;;;8.75;;
12625;SDS011;6378;42.684;23.372;2023-04-25T07:41:31;16.02;;;8.75;;
12625;SDS011;6378;42.684;23.372;2023-04-25T07:43:58;9.30;;;7.95;;
12625;SDS011;6378;42.684;23.372;2023-04-25T07:46:23;11.85;;;8.38;;
12625;SDS011;6378;42.684;23.372;2023-04-25T07:48:49;15.23;;;7.75;;
12625;SDS011;6378;42.684;23.372;2023-04-25T07:51:14;10.63;;;7.38;;
12625;SDS011;6378;42.684;23.372;2023-04-25T07:53:40;8.75;;;6.93;;
12625;SDS011;6378;42.684;23.372;2023-04-25T07:56:06;13.10;;;6.88;;
12625;SDS011;6378;42.684;23.372;2023-04-25T07:58:31;8.57;;;6.25;;
12625;SDS011;6378;42.684;23.372;2023-04-25T08:00:59;9.13;;;6.20;;
12625;SDS011;6378;42.684;23.372;2023-04-25T08:03:25;9.85;;;6.38;;
12625;SDS011;6378;42.684;23.372;2023-04-25T08:05:50;13.30;;;6.88;;
12625;SDS011;6378;42.684;23.372;2023-04-25T08:08:18;13.38;;;6.85;;
12625;SDS011;6378;42.684;23.372;2023-04-25T08:10:53;8.52;;;6.05;;
12625;SDS011;6378;42.684;23.372;2023-04-25T08:13:18;7.13;;;6.10;;
12625;SDS011;6378;42.684;23.372;2023-04-25T08:15:44;15.88;;;7.15;;
12625;SDS011;6378;42.684;23.372;2023-04-25T08:18:09;10.15;;;6.82;;
12625;SDS011;6378;42.684;23.372;2023-04-25T08:20:41;7.07;;;5.72;;
12625;SDS011;6378;42.684;23.372;2023-04-25T08:23:25;13.65;;;7.53;;
12625;SDS011;6378;42.684;23.372;2023-04-25T08:25:59;14.00;;;7.13;;
12625;SDS011;6378;42.684;23.372;2023-04-25T08:28:25;12.23;;;9.45;;
12625;SDS011;6378;42.684;23.372;2023-04-25T08:30:50;9.63;;;7.20;;
12625;SDS011;6378;42.684;23.372;2023-04-25T08:36:38;9.77;;;6.88;;
12625;SDS011;6378;42.684;23.372;2023-04-25T08:39:03;10.02;;;6.13;;
12625;SDS011;6378;42.684;23.372;2023-04-25T08:41:29;8.15;;;6.03;;
12625;SDS011;6378;42.684;23.372;2023-04-25T08:43:55;6.18;;;5.53;;
12625;SDS011;6378;42.684;23.372;2023-04-25T08:46:25;10.63;;;7.13;;
12625;SDS011;6378;42.684;23.372;2023-04-25T08:48:50;5.55;;;5.03;;
12625;SDS011;6378;42.684;23.372;2023-04-25T08:51:22;7.82;;;6.20;;
12625;SDS011;6378;42.684;23.372;2023-04-25T08:53:53;11.10;;;8.75;;
12625;SDS011;6378;42.684;23.372;2023-04-25T08:56:19;14.32;;;11.05;;
12625;SDS011;6378;42.684;23.372;2023-04-25T08:58:48;15.07;;;11.07;;
12625;SDS011;6378;42.684;23.372;2023-04-25T09:01:17;14.25;;;12.00;;
12625;SDS011;6378;42.684;23.372;2023-04-25T09:03:44;14.10;;;11.57;;
12625;SDS011;6378;42.684;23.372;2023-04-25T09:06:13;13.18;;;11.07;;
12625;SDS011;6378;42.684;23.372;2023-04-25T09:08:38;14.23;;;10.07;;
12625;SDS011;6378;42.684;23.372;2023-04-25T09:11:06;11.93;;;9.65;;
12625;SDS011;6378;42.684;23.372;2023-04-25T09:13:32;9.98;;;8.07;;
12625;SDS011;6378;42.684;23.372;2023-04-25T09:15:57;9.57;;;8.15;;
12625;SDS011;6378;42.684;23.372;2023-04-25T09:18:33;10.02;;;8.18;;
12625;SDS011;6378;42.684;23.372;2023-04-25T09:21:10;8.75;;;7.25;;
12625;SDS011;6378;42.684;23.372;2023-04-25T09:26:07;8.93;;;8.02;;
12625;SDS011;6378;42.684;23.372;2023-04-25T09:28:34;10.57;;;8.60;;
12625;SDS011;6378;42.684;23.372;2023-04-25T09:31:00;13.45;;;8.38;;
12625;SDS011;6378;42.684;23.372;2023-04-25T09:33:29;10.23;;;7.93;;
12625;SDS011;6378;42.684;23.372;2023-04-25T09:36:04;10.90;;;8.23;;
12625;SDS011;6378;42.684;23.372;2023-04-25T09:38:32;9.63;;;8.60;;
12625;SDS011;6378;42.684;23.372;2023-04-25T09:41:05;9.57;;;8.57;;
12625;SDS011;6378;42.684;23.372;2023-04-25T09:43:30;13.77;;;11.00;;
12625;SDS011;6378;42.684;23.372;2023-04-25T09:45:56;11.25;;;10.13;;
12625;SDS011;6378;42.684;23.372;2023-04-25T09:48:25;10.35;;;8.80;;
12625;SDS011;6378;42.684;23.372;2023-04-25T09:51:08;7.00;;;6.32;;
12625;SDS011;6378;42.684;23.372;2023-04-25T09:53:36;8.23;;;7.30;;
12625;SDS011;6378;42.684;23.372;2023-04-25T09:56:10;13.98;;;7.45;;
12625;SDS011;6378;42.684;23.372;2023-04-25T09:58:37;7.30;;;5.60;;
12625;SDS011;6378;42.684;23.372;2023-04-25T10:01:05;7.45;;;5.93;;
12625;SDS011;6378;42.684;23.372;2023-04-25T10:03:33;8.40;;;6.80;;
12625;SDS011;6378;42.684;23.372;2023-04-25T10:06:01;7.15;;;5.78;;
12625;SDS011;6378;42.684;23.372;2023-04-25T10:08:32;8.15;;;6.10;;
12625;SDS011;6378;42.684;23.372;2023-04-25T10:11:04;6.80;;;6.00;;
12625;SDS011;6378;42.684;23.372;2023-04-25T10:13:30;9.73;;;5.35;;
12625;SDS011;6378;42.684;23.372;2023-04-25T10:16:00;9.02;;;6.45;;
12625;SDS011;6378;42.684;23.372;2023-04-25T10:18:28;6.03;;;4.65;;
12625;SDS011;6378;42.684;23.372;2023-04-25T10:20:55;6.03;;;5.03;;
12625;SDS011;6378;42.684;23.372;2023-04-25T10:23:23;7.97;;;5.15;;
12625;SDS011;6378;42.684;23.372;2023-04-25T10:25:50;10.43;;;5.75;;
12625;SDS011;6378;42.684;23.372;2023-04-25T10:28:16;17.83;;;8.57;;
12625;SDS011;6378;42.684;23.372;2023-04-25T10:30:58;12.27;;;8.18;;
12625;SDS011;6378;42.684;23.372;2023-04-25T10:36:10;6.05;;;5.40;;
12625;SDS011;6378;42.684;23.372;2023-04-25T10:38:37;6.30;;;5.70;;
12625;SDS011;6378;42.684;23.372;2023-04-25T10:41:07;9.25;;;6.60;;
12625;SDS011;6378;42.684;23.372;2023-04-25T10:43:40;7.03;;;6.38;;
12625;SDS011;6378;42.684;23.372;2023-04-25T10:48:46;4.60;;;3.78;;
12625;SDS011;6378;42.684;23.372;2023-04-25T10:53:45;4.30;;;2.00;;
12625;SDS011;6378;42.684;23.372;2023-04-25T10:56:21;3.72;;;2.10;;
12625;SDS011;6378;42.684;23.372;2023-04-25T10:58:48;2.72;;;2.10;;
12625;SDS011;6378;42.684;23.372;2023-04-25T11:01:14;4.13;;;2.80;;
12625;SDS011;6378;42.684;23.372;2023-04-25T11:03:44;2.90;;;2.70;;
12625;SDS011;6378;42.684;23.372;2023-04-25T11:06:15;4.55;;;2.60;;
12625;SDS011;6378;42.684;23.372;2023-04-25T11:08:48;2.70;;;2.50;;
12625;SDS011;6378;42.684;23.372;2023-04-25T11:11:15;2.65;;;2.33;;
12625;SDS011;6378;42.684;23.372;2023-04-25T11:13:43;3.08;;;2.63;;
12625;SDS011;6378;42.684;23.372;2023-04-25T11:16:08;4.88;;;2.50;;
12625;SDS011;6378;42.684;23.372;2023-04-25T11:18:34;2.10;;;1.90;;
12625;SDS011;6378;42.684;23.372;2023-04-25T11:21:00;6.03;;;2.28;;
12625;SDS011;6378;42.684;23.372;2023-04-25T11:23:26;3.88;;;2.10;;
12625;SDS011;6378;42.684;23.372;2023-04-25T11:25:54;2.78;;;2.05;;
12625;SDS011;6378;42.684;23.372;2023-04-25T11:28:20;4.53;;;2.53;;
12625;SDS011;6378;42.684;23.372;2023-04-25T11:30:50;2.20;;;2.00;;
12625;SDS011;6378;42.684;23.372;2023-04-25T11:33:15;2.50;;;2.00;;
12625;SDS011;6378;42.684;23.372;2023-04-25T11:35:41;3.30;;;1.90;;
12625;SDS011;6378;42.684;23.372;2023-04-25T11:38:07;3.13;;;2.20;;
12625;SDS011;6378;42.684;23.372;2023-04-25T11:40:33;4.03;;;2.85;;
12625;SDS011;6378;42.684;23.372;2023-04-25T11:43:00;4.55;;;3.33;;
12625;SDS011;6378;42.684;23.372;2023-04-25T11:45:26;3.50;;;3.20;;
12625;SDS011;6378;42.684;23.372;2023-04-25T11:47:52;5.93;;;4.40;;
12625;SDS011;6378;42.684;23.372;2023-04-25T11:50:18;7.82;;;4.88;;
12625;SDS011;6378;42.684;23.372;2023-04-25T11:52:45;11.40;;;8.25;;
12625;SDS011;6378;42.684;23.372;2023-04-25T11:55:15;2.50;;;2.17;;
12625;SDS011;6378;42.684;23.372;2023-04-25T11:57:42;4.35;;;3.05;;
12625;SDS011;6378;42.684;23.372;2023-04-25T12:00:16;3.10;;;1.90;;
12625;SDS011;6378;42.684;23.372;2023-04-25T12:02:51;2.22;;;1.98;;
12625;SDS011;6378;42.684;23.372;2023-04-25T12:05:18;2.05;;;1.90;;
12625;SDS011;6378;42.684;23.372;2023-04-25T12:07:45;1.80;;;1.70;;
12625;SDS011;6378;42.684;23.372;2023-04-25T12:10:11;5.22;;;2.35;;
12625;SDS011;6378;42.684;23.372;2023-04-25T12:12:41;5.05;;;2.00;;
12625;SDS011;6378;42.684;23.372;2023-04-25T12:15:08;2.33;;;1.75;;
12625;SDS011;6378;42.684;23.372;2023-04-25T12:17:35;3.20;;;1.83;;
12625;SDS011;6378;42.684;23.372;2023-04-25T12:20:06;2.42;;;1.95;;
12625;SDS011;6378;42.684;23.372;2023-04-25T12:22:35;3.40;;;2.10;;
12625;SDS011;6378;42.684;23.372;2023-04-25T12:25:01;1.60;;;1.50;;
12625;SDS011;6378;42.684;23.372;2023-04-25T12:27:30;3.55;;;2.17;;
12625;SDS011;6378;42.684;23.372;2023-04-25T12:29:56;1.70;;;1.52;;
12625;SDS011;6378;42.684;23.372;2023-04-25T12:32:22;1.77;;;1.60;;
12625;SDS011;6378;42.684;23.372;2023-04-25T12:34:48;2.25;;;1.90;;
12625;SDS011;6378;42.684;23.372;2023-04-25T12:37:13;2.08;;;1.90;;
12625;SDS011;6378;42.684;23.372;2023-04-25T12:39:39;3.80;;;2.53;;
12625;SDS011;6378;42.684;23.372;2023-04-25T12:42:05;2.03;;;1.58;;
12625;SDS011;6378;42.684;23.372;2023-04-25T12:44:32;3.63;;;2.10;;
12625;SDS011;6378;42.684;23.372;2023-04-25T12:46:58;3.53;;;2.40;;
12625;SDS011;6378;42.684;23.372;2023-04-25T12:49:24;3.00;;;2.50;;
12625;SDS011;6378;42.684;23.372;2023-04-25T12:51:50;3.17;;;2.42;;
12625;SDS011;6378;42.684;23.372;2023-04-25T12:54:16;3.78;;;2.83;;
12625;SDS011;6378;42.684;23.372;2023-04-25T12:56:42;4.07;;;2.70;;
12625;SDS011;6378;42.684;23.372;2023-04-25T12:59:07;4.75;;;2.63;;
12625;SDS011;6378;42.684;23.372;2023-04-25T13:01:34;5.45;;;2.58;;
12625;SDS011;6378;42.684;23.372;2023-04-25T13:04:00;4.25;;;2.70;;
12625;SDS011;6378;42.684;23.372;2023-04-25T13:06:25;3.78;;;2.35;;
12625;SDS011;6378;42.684;23.372;2023-04-25T13:08:51;3.25;;;2.55;;
12625;SDS011;6378;42.684;23.372;2023-04-25T13:11:16;4.70;;;2.70;;
12625;SDS011;6378;42.684;23.372;2023-04-25T13:13:42;4.88;;;2.70;;
12625;SDS011;6378;42.684;23.372;2023-04-25T13:16:08;2.47;;;2.28;;
12625;SDS011;6378;42.684;23.372;2023-04-25T13:18:34;5.95;;;3.63;;
12625;SDS011;6378;42.684;23.372;2023-04-25T13:21:00;4.20;;;3.00;;
12625;SDS011;6378;42.684;23.372;2023-04-25T13:23:26;7.35;;;3.33;;
12625;SDS011;6378;42.684;23.372;2023-04-25T13:25:54;5.25;;;2.97;;
12625;SDS011;6378;42.684;23.372;2023-04-25T13:28:22;4.80;;;2.53;;
12625;SDS011;6378;42.684;23.372;2023-04-25T13:30:48;4.35;;;2.83;;
12625;SDS011;6378;42.684;23.372;2023-04-25T13:33:14;6.53;;;3.83;;
12625;SDS011;6378;42.684;23.372;2023-04-25T13:35:40;5.57;;;2.88;;
12625;SDS011;6378;42.684;23.372;2023-04-25T13:38:06;4.75;;;3.28;;
12625;SDS011;6378;42.684;23.372;2023-04-25T13:40:32;4.90;;;3.22;;
12625;SDS011;6378;42.684;23.372;2023-04-25T13:42:58;5.30;;;3.60;;
12625;SDS011;6378;42.684;23.372;2023-04-25T13:45:24;6.57;;;3.28;;
12625;SDS011;6378;42.684;23.372;2023-04-25T13:47:49;7.38;;;3.83;;
12625;SDS011;6378;42.684;23.372;2023-04-25T13:50:15;4.43;;;3.30;;
12625;SDS011;6378;42.684;23.372;2023-04-25T13:52:41;4.82;;;3.90;;
12625;SDS011;6378;42.684;23.372;2023-04-25T13:55:07;6.03;;;3.63;;
12625;SDS011;6378;42.684;23.372;2023-04-25T13:57:33;4.63;;;3.72;;
12625;SDS011;6378;42.684;23.372;2023-04-25T13:59:59;5.80;;;3.67;;
12625;SDS011;6378;42.684;23.372;2023-04-25T14:02:29;6.15;;;4.10;;
12625;SDS011;6378;42.684;23.372;2023-04-25T14:04:55;4.47;;;3.50;;
12625;SDS011;6378;42.684;23.372;2023-04-25T14:07:21;5.65;;;3.78;;
12625;SDS011;6378;42.684;23.372;2023-04-25T14:09:46;5.63;;;2.78;;
12625;SDS011;6378;42.684;23.372;2023-04-25T14:12:12;10.00;;;7.35;;
12625;SDS011;6378;42.684;23.372;2023-04-25T14:14:37;6.13;;;4.57;;
12625;SDS011;6378;42.684;23.372;2023-04-25T14:17:03;5.78;;;3.53;;
12625;SDS011;6378;42.684;23.372;2023-04-25T14:19:28;6.13;;;4.32;;
12625;SDS011;6378;42.684;23.372;2023-04-25T14:21:54;5.85;;;3.60;;
12625;SDS011;6378;42.684;23.372;2023-04-25T14:24:19;5.25;;;3.28;;
12625;SDS011;6378;42.684;23.372;2023-04-25T14:26:45;4.15;;;3.40;;
12625;SDS011;6378;42.684;23.372;2023-04-25T14:29:11;5.15;;;3.65;;
12625;SDS011;6378;42.684;23.372;2023-04-25T14:31:39;3.55;;;3.00;;
12625;SDS011;6378;42.684;23.372;2023-04-25T14:34:08;9.75;;;6.75;;
12625;SDS011;6378;42.684;23.372;2023-04-25T14:36:33;2.97;;;2.67;;
12625;SDS011;6378;42.684;23.372;2023-04-25T14:38:59;2.58;;;2.38;;
12625;SDS011;6378;42.684;23.372;2023-04-25T14:41:25;2.58;;;2.38;;
12625;SDS011;6378;42.684;23.372;2023-04-25T14:43:51;3.88;;;2.33;;
12625;SDS011;6378;42.684;23.372;2023-04-25T14:46:17;3.15;;;2.40;;
12625;SDS011;6378;42.684;23.372;2023-04-25T14:48:43;11.30;;;2.55;;
12625;SDS011;6378;42.684;23.372;2023-04-25T14:51:09;2.50;;;2.25;;
12625;SDS011;6378;42.684;23.372;2023-04-25T14:53:34;2.03;;;1.83;;
12625;SDS011;6378;42.684;23.372;2023-04-25T14:55:59;2.17;;;1.90;;
12625;SDS011;6378;42.684;23.372;2023-04-25T14:58:25;2.65;;;1.90;;
12625;SDS011;6378;42.684;23.372;2023-04-25T15:00:50;2.20;;;2.00;;
12625;SDS011;6378;42.684;23.372;2023-04-25T15:03:16;3.22;;;2.35;;
12625;SDS011;6378;42.684;23.372;2023-04-25T15:05:42;3.08;;;2.78;;